aviador You're here:

KVIS Decoded Metar

VISALIA MUNI in CA, USA
Report Time2018-01-21 17:56:00
UTC Time2018-01-21 18:40:22
Flight Rules vfr VFR
WindCalm
Visibility9999 m
Phenomena:N/A
Clouds:N/A
Expected CloudBase > 1,600 ft AGL from Temp-Dew spread
CeilingNone
Temp07°C (ISA -7)
Dew Point03°C (76% RH)
AAT5.5°C
QNH1030 hPa
Density Alt-1,070 ft
Elevation292 ft
Report Wrong Elevation
Raw Report
METAR KVIS 211756Z AUTO 00000KT 10SM CLR 07/03 A3041 RMK AO2 SLP308
T00720033 10072 21006 53022=

Extra information for KVIS:More info

Metar Taf Metar & Taf Last 4 Metars F.Rules Stats Wind Profile Meteogram Temp Stats Airport Information Weather charts Add Link Nearby VenuesMetar ALERT Operation Metar Decoded Social comments

AIRNAV info for KVIS